createdAt,value
2022-08-19T00:04:15.470Z,19.70
2022-08-19T00:09:19.816Z,19.60
2022-08-19T00:14:22.741Z,19.60
2022-08-19T00:19:25.199Z,19.60
2022-08-19T00:24:28.549Z,19.60
2022-08-19T00:29:30.341Z,19.60
2022-08-19T00:34:32.207Z,19.50
2022-08-19T00:39:34.072Z,19.40
2022-08-19T00:44:36.456Z,19.40
2022-08-19T00:49:51.590Z,19.40
2022-08-19T00:54:54.334Z,19.30
2022-08-19T01:00:02.595Z,19.30
2022-08-19T01:05:11.095Z,19.30
2022-08-19T01:10:15.798Z,19.20
2022-08-19T01:15:23.730Z,19.20
2022-08-19T01:20:25.579Z,19.10
2022-08-19T01:25:41.813Z,19.00
2022-08-19T01:30:51.106Z,19.00
2022-08-19T01:35:53.497Z,18.90
2022-08-19T01:40:55.213Z,19.00
2022-08-19T01:45:56.958Z,18.90
2022-08-19T01:50:58.724Z,18.90
2022-08-19T01:56:01.140Z,18.90
2022-08-19T02:01:04.762Z,18.80
2022-08-19T02:06:06.903Z,18.80
2022-08-19T02:11:09.016Z,18.80
2022-08-19T02:16:10.874Z,18.80
2022-08-19T02:21:14.154Z,18.80
2022-08-19T02:26:16.762Z,18.80
2022-08-19T02:31:21.621Z,18.80
2022-08-19T02:36:24.957Z,18.80
2022-08-19T02:41:29.807Z,18.70
2022-08-19T02:46:34.273Z,18.70
2022-08-19T02:51:37.437Z,18.70
2022-08-19T02:56:41.901Z,18.70
2022-08-19T03:01:43.673Z,18.70
2022-08-19T03:06:47.719Z,18.60
2022-08-19T03:11:49.489Z,18.60
2022-08-19T03:16:54.547Z,18.60
2022-08-19T03:21:56.536Z,18.50
2022-08-19T03:26:59.603Z,18.50
2022-08-19T03:32:04.560Z,18.50
2022-08-19T03:37:15.811Z,18.50
2022-08-19T03:42:38.352Z,18.50
2022-08-19T03:47:39.724Z,18.40
2022-08-19T03:52:46.931Z,18.40
2022-08-19T03:57:49.414Z,18.40
2022-08-19T04:02:56.492Z,18.40
2022-08-19T04:08:03.360Z,18.30
2022-08-19T04:13:07.117Z,18.20
2022-08-19T04:18:12.089Z,18.20
2022-08-19T04:23:15.058Z,18.20
2022-08-19T04:28:16.840Z,18.20
2022-08-19T04:33:26.483Z,18.10
2022-08-19T04:38:30.416Z,18.00
2022-08-19T04:43:33.193Z,18.00
2022-08-19T04:48:35.772Z,18.00
2022-08-19T04:53:44.402Z,18.00
2022-08-19T04:58:46.192Z,17.90
2022-08-19T05:03:48.339Z,18.00
2022-08-19T05:08:50.838Z,18.00
2022-08-19T05:13:53.245Z,18.00
2022-08-19T05:19:15.009Z,18.00
2022-08-19T05:24:17.269Z,18.00
2022-08-19T05:29:23.201Z,18.00
2022-08-19T05:34:26.984Z,18.10
2022-08-19T05:39:31.836Z,18.20
2022-08-19T05:44:37.346Z,18.20
2022-08-19T05:49:39.617Z,18.30
2022-08-19T05:54:42.544Z,18.30
2022-08-19T05:59:46.693Z,18.40
2022-08-19T06:04:48.378Z,18.50
2022-08-19T06:10:00.537Z,18.50
2022-08-19T06:15:12.016Z,18.60
2022-08-19T06:20:16.065Z,18.60
2022-08-19T06:25:18.185Z,18.70
2022-08-19T06:30:19.984Z,18.80
2022-08-19T06:35:21.786Z,18.80
2022-08-19T06:40:23.641Z,18.90
2022-08-19T06:45:34.730Z,19.00
2022-08-19T06:50:40.967Z,19.10
2022-08-19T06:55:42.880Z,19.20
2022-08-19T07:00:44.644Z,19.30
2022-08-19T07:05:46.505Z,19.40
2022-08-19T07:10:50.039Z,19.60
2022-08-19T07:15:52.263Z,19.70
2022-08-19T07:21:09.501Z,19.90
2022-08-19T07:26:20.145Z,20.00
2022-08-19T07:31:31.107Z,20.00
2022-08-19T07:36:33.935Z,20.20
2022-08-19T07:41:37.919Z,20.40
2022-08-19T07:46:42.903Z,20.50
2022-08-19T07:51:49.791Z,20.60
2022-08-19T07:56:52.514Z,20.60
2022-08-19T08:01:54.768Z,20.80
2022-08-19T08:07:15.335Z,20.90
2022-08-19T08:12:34.238Z,21.00
2022-08-19T08:17:49.369Z,21.10
2022-08-19T08:23:11.680Z,21.30
2022-08-19T08:28:17.536Z,21.50
2022-08-19T08:33:32.788Z,21.60
2022-08-19T08:38:41.271Z,21.80
2022-08-19T08:43:47.867Z,22.00
2022-08-19T08:49:29.937Z,22.20
2022-08-19T08:54:36.487Z,22.30
2022-08-19T08:59:42.098Z,22.50
2022-08-19T09:04:44.047Z,22.60
2022-08-19T09:09:51.572Z,22.70
2022-08-19T09:15:08.419Z,22.70
2022-08-19T09:20:20.489Z,22.80
2022-08-19T09:25:24.725Z,22.90
2022-08-19T09:30:34.416Z,23.00
2022-08-19T09:35:50.217Z,23.10
2022-08-19T09:40:55.598Z,23.20
2022-08-19T09:45:58.124Z,23.30
2022-08-19T09:51:09.057Z,23.40
2022-08-19T09:56:14.536Z,23.60
2022-08-19T10:01:22.251Z,23.50
2022-08-19T10:06:45.673Z,23.60
2022-08-19T10:11:54.480Z,23.90
2022-08-19T10:16:59.359Z,24.00
2022-08-19T10:22:04.538Z,24.00
2022-08-19T10:27:06.769Z,24.10
2022-08-19T10:32:10.921Z,24.20
2022-08-19T10:37:14.403Z,24.20
2022-08-19T10:42:19.484Z,24.30
2022-08-19T10:47:25.791Z,24.30
2022-08-19T10:52:34.643Z,24.20
2022-08-19T10:58:01.330Z,24.40
2022-08-19T11:03:03.176Z,24.50
2022-08-19T11:08:07.216Z,24.60
2022-08-19T11:13:25.495Z,24.80
2022-08-19T11:18:27.437Z,24.80
2022-08-19T11:23:29.133Z,24.80
2022-08-19T11:28:31.221Z,24.90
2022-08-19T11:33:33.580Z,24.90
2022-08-19T11:38:37.612Z,25.00
2022-08-19T11:43:40.649Z,25.30
2022-08-19T11:48:43.311Z,25.30
2022-08-19T11:53:45.446Z,25.20
2022-08-19T11:58:47.800Z,25.30
2022-08-19T12:03:52.031Z,25.40
2022-08-19T12:08:54.696Z,25.50
2022-08-19T12:13:56.415Z,25.70
2022-08-19T12:18:59.947Z,25.90
2022-08-19T12:24:04.649Z,26.20
2022-08-19T12:29:06.362Z,26.50
2022-08-19T12:34:08.412Z,26.60
2022-08-19T12:39:11.113Z,26.60
2022-08-19T12:44:14.750Z,26.80
2022-08-19T12:49:35.914Z,26.80
2022-08-19T12:54:38.849Z,27.00
2022-08-19T12:59:40.556Z,27.00
2022-08-19T13:04:42.435Z,27.00
2022-08-19T13:09:44.275Z,27.00
2022-08-19T13:14:51.803Z,26.90
2022-08-19T13:19:53.615Z,26.80
2022-08-19T13:24:55.385Z,26.90
2022-08-19T13:30:15.704Z,27.10
2022-08-19T13:35:17.917Z,27.00
2022-08-19T13:40:24.684Z,27.00
2022-08-19T13:45:28.673Z,26.80
2022-08-19T13:50:32.453Z,26.80
2022-08-19T13:55:37.957Z,26.80
2022-08-19T14:00:43.422Z,26.70
2022-08-19T14:05:47.558Z,26.90
2022-08-19T14:10:49.529Z,27.00
2022-08-19T14:15:52.501Z,26.90
2022-08-19T14:20:54.753Z,26.80
2022-08-19T14:26:05.578Z,26.80
2022-08-19T14:31:07.337Z,26.90
2022-08-19T14:36:09.402Z,27.10
2022-08-19T14:41:21.424Z,27.10
2022-08-19T14:46:26.286Z,27.20
2022-08-19T14:51:30.112Z,27.30
2022-08-19T14:56:32.006Z,27.30
2022-08-19T15:01:33.955Z,27.20
2022-08-19T15:06:35.873Z,27.20
2022-08-19T15:11:39.267Z,27.20
2022-08-19T15:16:42.559Z,27.10
2022-08-19T15:21:44.389Z,27.20
2022-08-19T15:26:46.185Z,27.30
2022-08-19T15:31:47.961Z,27.10
2022-08-19T15:36:51.281Z,27.00
2022-08-19T15:41:53.097Z,26.80
2022-08-19T15:46:54.919Z,26.70
2022-08-19T15:51:57.993Z,26.70
2022-08-19T15:57:18.903Z,26.70
2022-08-19T16:02:41.981Z,26.70
2022-08-19T16:07:44.010Z,26.70
2022-08-19T16:12:45.796Z,26.70
2022-08-19T16:17:56.791Z,26.70
2022-08-19T16:22:59.949Z,26.60
2022-08-19T16:28:06.588Z,26.50
2022-08-19T16:33:10.179Z,26.50
2022-08-19T16:38:11.951Z,26.40
2022-08-19T16:43:13.711Z,26.30
2022-08-19T16:48:15.480Z,26.40
2022-08-19T16:53:29.017Z,26.40
2022-08-19T16:58:34.059Z,26.40
2022-08-19T17:03:37.576Z,26.30
2022-08-19T17:08:39.548Z,26.30
2022-08-19T17:13:41.269Z,26.20
2022-08-19T17:18:45.402Z,26.10
2022-08-19T17:23:47.207Z,26.00
2022-08-19T17:28:53.617Z,25.90
2022-08-19T17:33:58.124Z,25.90
2022-08-19T17:39:01.503Z,25.80
2022-08-19T17:44:03.837Z,25.80
2022-08-19T17:49:06.692Z,25.60
2022-08-19T17:54:10.836Z,25.50
2022-08-19T17:59:14.223Z,25.40
2022-08-19T18:04:17.170Z,25.30
2022-08-19T18:09:18.907Z,25.20
2022-08-19T18:14:32.988Z,25.10
2022-08-19T18:19:41.306Z,25.00
2022-08-19T18:24:45.845Z,24.90
2022-08-19T18:29:48.128Z,24.80
2022-08-19T18:34:49.836Z,24.70
2022-08-19T18:40:10.489Z,24.60
2022-08-19T18:45:31.436Z,24.60
2022-08-19T18:50:33.399Z,24.50
2022-08-19T18:55:35.254Z,24.40
2022-08-19T19:00:37.429Z,24.30
2022-08-19T19:05:44.178Z,24.30
2022-08-19T19:10:45.889Z,24.20
2022-08-19T19:15:48.899Z,24.10
2022-08-19T19:20:50.748Z,24.10
2022-08-19T19:25:52.538Z,24.00
2022-08-19T19:30:59.577Z,23.90
2022-08-19T19:36:01.402Z,23.80
2022-08-19T19:41:03.804Z,23.70
2022-08-19T19:46:05.814Z,23.60
2022-08-19T19:51:09.544Z,23.60
2022-08-19T19:56:12.991Z,23.50
2022-08-19T20:01:19.556Z,23.50
2022-08-19T20:06:24.670Z,23.40
2022-08-19T20:11:39.636Z,23.40
2022-08-19T20:16:43.470Z,23.40
2022-08-19T20:21:51.075Z,23.30
2022-08-19T20:26:53.855Z,23.30
2022-08-19T20:31:57.640Z,23.30
2022-08-19T20:37:01.137Z,23.30
2022-08-19T20:42:02.965Z,23.20
2022-08-19T20:47:04.825Z,23.10
2022-08-19T20:52:06.935Z,23.10
2022-08-19T20:57:08.780Z,23.00
2022-08-19T21:02:11.137Z,23.00
2022-08-19T21:07:15.283Z,23.00
2022-08-19T21:12:17.714Z,23.00
2022-08-19T21:17:19.403Z,22.90
2022-08-19T21:22:21.093Z,22.90
2022-08-19T21:27:22.964Z,22.80
2022-08-19T21:32:24.899Z,22.80
2022-08-19T21:37:26.735Z,22.80
2022-08-19T21:42:28.660Z,22.80
2022-08-19T21:47:30.425Z,22.80
2022-08-19T21:52:32.260Z,22.70
2022-08-19T21:57:34.136Z,22.70
2022-08-19T22:02:37.833Z,22.70
2022-08-19T22:07:39.749Z,22.50
2022-08-19T22:12:46.089Z,22.50
2022-08-19T22:17:54.261Z,22.50
2022-08-19T22:23:01.030Z,22.50
2022-08-19T22:28:06.077Z,22.40
2022-08-19T22:33:11.601Z,22.40
2022-08-19T22:38:14.371Z,22.30
2022-08-19T22:43:22.247Z,22.30
2022-08-19T22:48:27.979Z,22.30
2022-08-19T22:53:29.810Z,22.20
2022-08-19T22:58:31.944Z,22.20
2022-08-19T23:03:34.908Z,22.10
2022-08-19T23:08:39.686Z,22.10
2022-08-19T23:13:42.206Z,22.00
2022-08-19T23:18:45.314Z,22.00
2022-08-19T23:23:47.033Z,21.90
2022-08-19T23:29:07.259Z,21.80
2022-08-19T23:34:09.383Z,21.70
2022-08-19T23:39:11.113Z,21.70
2022-08-19T23:44:14.563Z,21.50
2022-08-19T23:49:16.774Z,21.50
2022-08-19T23:54:18.472Z,21.60
2022-08-19T23:59:20.425Z,21.40
